アイウン の空港の天気 - METARとTAF

アイウン/ハッサン空港 ( GMML / EUN ) - 西サハラ アイウン
飛行場実況気象(Metar)
観測時間07/16 07:00 WEST (07/16 06:00 UTC)
風向・風速北北東 11m/s
視程8000m
天気現象
全天を覆う雲 雲底高度 490m
気温19℃
湿度83%
気圧1017hPa
METARGMML 160600Z 03022KT 8000 OVC016 19/16 Q1017 NOSIG
過去の天気等 Google飛行場航空写真 Wunderground天気予報

過去48時間のMETAR

飛行場予報(TAF)
発表時間: 7/16 06:00 WEST (7/16 05:00 UTC)
予報対象時間: 16日7時 WEST ~ 17日13時 WEST
風向・風速北 7m/s
視程8000m
全天の8割程度の雲 雲底高度 490m
16日11時 WEST ~ 16日13時 WEST に徐々に
なし
16日13時 WEST ~ 16日20時 WEST に一時的に
風向・風速北 10m/s 瞬間風速 16m/s
16日19時 WEST ~ 16日21時 WEST に徐々に
全天の8割程度の雲 雲底高度 460m
TAF GMML 160500Z 1606/1712 36014KT 8000 BKN016
BECMG 1610/1612 NSC
TEMPO 1612/1619 36020G32KT
BECMG 1618/1620 BKN015